Patcona II — WDC2170 — position and weather

sailwx.info

Track history (hours):
 
Tides and Currents Weather Stations Pressure Air Temp Water Temp Dewpoint Dewpoint Depression Visibility Wind Speed Wind Dir Waves Ship Positions

Patcona II

Owner: Connolly-Pacific Co, long beach, CA. More information available from US FCC via Universal Licensing System and Coast Guard Vessel Documentation Center.

Last reported at 2017-Aug-15 21:45 UTC. Time now 2017-Aug-16 15:16 UTC.
Position N 33°46' W 118°13'.

Length 25 m; draft 3.5 m.

Type: Towing. MMSI: 366988960.

Date/timePositionNaut miles runAvg speedWind from/ knotsBaromVisibWave heightAir tempDewpointWater temp
2017-Aug-15 21:45N 33°46' W 118°13'0 0.2
2017-Aug-15 21:30N 33°46' W 118°13'2 3.2
2017-Aug-15 21:00N 33°45' W 118°13'2 4.1
2017-Aug-15 20:30N 33°44' W 118°11'0 0.4
2017-Aug-15 19:59N 33°43' W 118°11'0 0.2
2017-Aug-15 19:30N 33°43' W 118°11'0 0.3
2017-Aug-15 19:00N 33°44' W 118°11'0 0.1
2017-Aug-15 18:30N 33°44' W 118°11'1 2.0
2017-Aug-15 18:00N 33°44' W 118°12'2 4.4
2017-Aug-15 17:30N 33°46' W 118°13'  
2017-Aug-08 08:38N 33°46' W 118°13'1 5.7
2017-Aug-08 08:30N 33°45' W 118°13'2 2.8
2017-Aug-08 07:55N 33°44' W 118°14'0 0.3
2017-Aug-08 07:30N 33°44' W 118°14'1 2.2
2017-Aug-08 07:00N 33°43' W 118°14'1 1.4
2017-Aug-08 06:30N 33°42' W 118°15'2 4.5
2017-Aug-08 06:00N 33°40' W 118°14'2 5.0
2017-Aug-08 05:30N 33°38' W 118°14'2 4.8
2017-Aug-08 05:00N 33°35' W 118°15'2 4.5
2017-Aug-08 04:30N 33°33' W 118°15'2 4.3
2017-Aug-08 04:00N 33°31' W 118°15'2 4.1
2017-Aug-08 03:30N 33°29' W 118°15'2 4.1
2017-Aug-08 03:00N 33°27' W 118°16'2 4.1
2017-Aug-08 02:30N 33°25' W 118°16'2 4.4
2017-Aug-08 02:00N 33°23' W 118°17'2 4.9
2017-Aug-08 01:30N 33°20' W 118°17'1 2.3
2017-Aug-08 01:00N 33°19' W 118°18'0 0.8
2017-Aug-08 00:30N 33°19' W 118°18'0 0.5
2017-Aug-08 00:00N 33°19' W 118°18'0 0.0
2017-Aug-07 23:30N 33°19' W 118°18'0 0.0
2017-Aug-07 22:56N 33°19' W 118°18'0 0.0
2017-Aug-07 22:30N 33°19' W 118°18'0 0.0
2017-Aug-07 22:00N 33°19' W 118°18'0 0.0
2017-Aug-07 21:30N 33°19' W 118°18'0 0.0
2017-Aug-07 21:00N 33°19' W 118°18'0 0.0
2017-Aug-07 20:30N 33°19' W 118°18'0 0.0
2017-Aug-07 19:59N 33°19' W 118°18'0 0.1
2017-Aug-07 19:30N 33°19' W 118°18'0 0.0
2017-Aug-07 19:00N 33°19' W 118°18'0 0.0
2017-Aug-07 18:24N 33°19' W 118°18'0 0.0
2017-Aug-07 18:00N 33°19' W 118°18'0 0.0
2017-Aug-07 16:18N 33°19' W 118°18'0 0.0
2017-Aug-07 15:48N 33°19' W 118°18'0 0.0
2017-Aug-07 15:30N 33°19' W 118°18'1 1.4
2017-Aug-07 14:59N 33°19' W 118°17'1 1.2
2017-Aug-07 14:30N 33°19' W 118°18'1 1.6
2017-Aug-07 14:00N 33°19' W 118°18'3 4.9
2017-Aug-07 13:25N 33°22' W 118°16'2 5.4
2017-Aug-07 13:00N 33°24' W 118°17'4 7.1
2017-Aug-07 12:30N 33°28' W 118°16'7 7.3
2017-Aug-07 11:37N 33°34' W 118°16'3 7.3
2017-Aug-07 11:16N 33°37' W 118°16'2 6.6
2017-Aug-07 10:59N 33°39' W 118°15'3 6.9
2017-Aug-07 10:31N 33°42' W 118°15'2 2.8
2017-Aug-07 09:39N 33°44' W 118°14'1 4.1
2017-Aug-07 09:30N 33°44' W 118°13'1 3.0
2017-Aug-07 09:00N 33°46' W 118°13'  
Track history (hours):
 
Tides and Currents Weather Stations Pressure Air Temp Water Temp Dewpoint Dewpoint Depression Visibility Wind Speed Wind Dir Waves Ship Positions

Patcona II

Owner: Connolly-Pacific Co, long beach, CA. More information available from US FCC via Universal Licensing System and Coast Guard Vessel Documentation Center.

Last reported at 2017-Aug-15 21:45 UTC. Time now 2017-Aug-16 15:16 UTC.
Position N 33°46' W 118°13'.

Length 25 m; draft 3.5 m.

Type: Towing. MMSI: 366988960.

Date/timePositionNaut miles runAvg speedWind from/ knotsBaromVisibWave heightAir tempDewpointWater temp
2017-Aug-15 21:45N 33°46' W 118°13'0 0.2
2017-Aug-15 21:30N 33°46' W 118°13'2 3.2
2017-Aug-15 21:00N 33°45' W 118°13'2 4.1
2017-Aug-15 20:30N 33°44' W 118°11'0 0.4
2017-Aug-15 19:59N 33°43' W 118°11'0 0.2
2017-Aug-15 19:30N 33°43' W 118°11'0 0.3
2017-Aug-15 19:00N 33°44' W 118°11'0 0.1
2017-Aug-15 18:30N 33°44' W 118°11'1 2.0
2017-Aug-15 18:00N 33°44' W 118°12'2 4.4
2017-Aug-15 17:30N 33°46' W 118°13'  
2017-Aug-08 08:38N 33°46' W 118°13'1 5.7
2017-Aug-08 08:30N 33°45' W 118°13'2 2.8
2017-Aug-08 07:55N 33°44' W 118°14'0 0.3
2017-Aug-08 07:30N 33°44' W 118°14'1 2.2
2017-Aug-08 07:00N 33°43' W 118°14'1 1.4
2017-Aug-08 06:30N 33°42' W 118°15'2 4.5
2017-Aug-08 06:00N 33°40' W 118°14'2 5.0
2017-Aug-08 05:30N 33°38' W 118°14'2 4.8
2017-Aug-08 05:00N 33°35' W 118°15'2 4.5
2017-Aug-08 04:30N 33°33' W 118°15'2 4.3
2017-Aug-08 04:00N 33°31' W 118°15'2 4.1
2017-Aug-08 03:30N 33°29' W 118°15'2 4.1
2017-Aug-08 03:00N 33°27' W 118°16'2 4.1
2017-Aug-08 02:30N 33°25' W 118°16'2 4.4
2017-Aug-08 02:00N 33°23' W 118°17'2 4.9
2017-Aug-08 01:30N 33°20' W 118°17'1 2.3
2017-Aug-08 01:00N 33°19' W 118°18'0 0.8
2017-Aug-08 00:30N 33°19' W 118°18'0 0.5
2017-Aug-08 00:00N 33°19' W 118°18'0 0.0
2017-Aug-07 23:30N 33°19' W 118°18'0 0.0
2017-Aug-07 22:56N 33°19' W 118°18'0 0.0
2017-Aug-07 22:30N 33°19' W 118°18'0 0.0
2017-Aug-07 22:00N 33°19' W 118°18'0 0.0
2017-Aug-07 21:30N 33°19' W 118°18'0 0.0
2017-Aug-07 21:00N 33°19' W 118°18'0 0.0
2017-Aug-07 20:30N 33°19' W 118°18'0 0.0
2017-Aug-07 19:59N 33°19' W 118°18'0 0.1
2017-Aug-07 19:30N 33°19' W 118°18'0 0.0
2017-Aug-07 19:00N 33°19' W 118°18'0 0.0
2017-Aug-07 18:24N 33°19' W 118°18'0 0.0
2017-Aug-07 18:00N 33°19' W 118°18'0 0.0
2017-Aug-07 16:18N 33°19' W 118°18'0 0.0
2017-Aug-07 15:48N 33°19' W 118°18'0 0.0
2017-Aug-07 15:30N 33°19' W 118°18'1 1.4
2017-Aug-07 14:59N 33°19' W 118°17'1 1.2
2017-Aug-07 14:30N 33°19' W 118°18'1 1.6
2017-Aug-07 14:00N 33°19' W 118°18'3 4.9
2017-Aug-07 13:25N 33°22' W 118°16'2 5.4
2017-Aug-07 13:00N 33°24' W 118°17'4 7.1
2017-Aug-07 12:30N 33°28' W 118°16'7 7.3
2017-Aug-07 11:37N 33°34' W 118°16'3 7.3
2017-Aug-07 11:16N 33°37' W 118°16'2 6.6
2017-Aug-07 10:59N 33°39' W 118°15'3 6.9
2017-Aug-07 10:31N 33°42' W 118°15'2 2.8
2017-Aug-07 09:39N 33°44' W 118°14'1 4.1
2017-Aug-07 09:30N 33°44' W 118°13'1 3.0
2017-Aug-07 09:00N 33°46' W 118°13'  

Dump ship's entire track history